sensor_id;sensor_type;location;lat;lon;timestamp;P1;durP1;ratioP1;P2;durP2;ratioP2
72960;SDS011;61141;46.204;19.774;2023-07-20T00:00:21;4.82;;;2.03;;
72960;SDS011;61141;46.204;19.774;2023-07-20T00:03:25;4.00;;;1.80;;
72960;SDS011;61141;46.204;19.774;2023-07-20T00:06:27;4.00;;;1.97;;
72960;SDS011;61141;46.204;19.774;2023-07-20T00:09:30;3.20;;;1.10;;
72960;SDS011;61141;46.204;19.774;2023-07-20T00:12:33;4.37;;;1.75;;
72960;SDS011;61141;46.204;19.774;2023-07-20T00:15:36;3.58;;;1.52;;
72960;SDS011;61141;46.204;19.774;2023-07-20T00:18:40;4.12;;;2.12;;
72960;SDS011;61141;46.204;19.774;2023-07-20T00:21:43;3.30;;;1.07;;
72960;SDS011;61141;46.204;19.774;2023-07-20T00:24:46;3.47;;;1.50;;
72960;SDS011;61141;46.204;19.774;2023-07-20T00:27:50;4.30;;;1.95;;
72960;SDS011;61141;46.204;19.774;2023-07-20T00:30:55;4.78;;;2.25;;
72960;SDS011;61141;46.204;19.774;2023-07-20T00:33:58;4.07;;;1.92;;
72960;SDS011;61141;46.204;19.774;2023-07-20T00:37:01;3.50;;;1.50;;
72960;SDS011;61141;46.204;19.774;2023-07-20T00:40:04;3.87;;;1.83;;
72960;SDS011;61141;46.204;19.774;2023-07-20T00:43:09;3.80;;;1.70;;
72960;SDS011;61141;46.204;19.774;2023-07-20T00:46:15;3.55;;;1.42;;
72960;SDS011;61141;46.204;19.774;2023-07-20T00:49:19;3.30;;;1.30;;
72960;SDS011;61141;46.204;19.774;2023-07-20T00:52:24;6.70;;;2.00;;
72960;SDS011;61141;46.204;19.774;2023-07-20T00:55:28;3.30;;;1.25;;
72960;SDS011;61141;46.204;19.774;2023-07-20T00:58:33;3.78;;;1.50;;
72960;SDS011;61141;46.204;19.774;2023-07-20T01:01:37;3.90;;;1.98;;
72960;SDS011;61141;46.204;19.774;2023-07-20T01:04:41;3.12;;;1.05;;
72960;SDS011;61141;46.204;19.774;2023-07-20T01:10:54;3.92;;;1.83;;
72960;SDS011;61141;46.204;19.774;2023-07-20T01:14:06;3.72;;;1.77;;
72960;SDS011;61141;46.204;19.774;2023-07-20T01:17:10;4.55;;;1.87;;
72960;SDS011;61141;46.204;19.774;2023-07-20T01:20:13;4.32;;;2.15;;
72960;SDS011;61141;46.204;19.774;2023-07-20T01:23:30;3.40;;;1.40;;
72960;SDS011;61141;46.204;19.774;2023-07-20T01:26:46;3.60;;;1.52;;
72960;SDS011;61141;46.204;19.774;2023-07-20T01:32:56;4.40;;;1.87;;
72960;SDS011;61141;46.204;19.774;2023-07-20T01:36:02;3.75;;;1.65;;
72960;SDS011;61141;46.204;19.774;2023-07-20T01:39:06;4.77;;;1.73;;
72960;SDS011;61141;46.204;19.774;2023-07-20T01:42:11;3.10;;;1.08;;
72960;SDS011;61141;46.204;19.774;2023-07-20T01:45:14;4.15;;;1.73;;
72960;SDS011;61141;46.204;19.774;2023-07-20T01:48:17;3.85;;;1.70;;
72960;SDS011;61141;46.204;19.774;2023-07-20T01:51:20;3.65;;;1.48;;
72960;SDS011;61141;46.204;19.774;2023-07-20T01:54:23;3.33;;;1.60;;
72960;SDS011;61141;46.204;19.774;2023-07-20T01:57:26;3.30;;;1.20;;
72960;SDS011;61141;46.204;19.774;2023-07-20T02:00:29;5.57;;;1.55;;
72960;SDS011;61141;46.204;19.774;2023-07-20T02:03:33;10.18;;;1.35;;
72960;SDS011;61141;46.204;19.774;2023-07-20T02:06:35;4.25;;;1.98;;
72960;SDS011;61141;46.204;19.774;2023-07-20T02:09:39;3.83;;;1.83;;
72960;SDS011;61141;46.204;19.774;2023-07-20T02:12:43;3.87;;;1.87;;
72960;SDS011;61141;46.204;19.774;2023-07-20T02:15:46;3.90;;;1.85;;
72960;SDS011;61141;46.204;19.774;2023-07-20T02:18:50;3.62;;;1.65;;
72960;SDS011;61141;46.204;19.774;2023-07-20T02:21:53;4.18;;;2.25;;
72960;SDS011;61141;46.204;19.774;2023-07-20T02:24:56;3.40;;;1.40;;
72960;SDS011;61141;46.204;19.774;2023-07-20T02:28:11;3.53;;;1.35;;
72960;SDS011;61141;46.204;19.774;2023-07-20T02:31:16;4.20;;;2.15;;
72960;SDS011;61141;46.204;19.774;2023-07-20T02:34:19;4.07;;;1.98;;
72960;SDS011;61141;46.204;19.774;2023-07-20T02:37:22;3.47;;;1.42;;
72960;SDS011;61141;46.204;19.774;2023-07-20T02:40:30;4.17;;;1.37;;
72960;SDS011;61141;46.204;19.774;2023-07-20T02:43:33;4.55;;;1.45;;
72960;SDS011;61141;46.204;19.774;2023-07-20T02:46:36;5.75;;;2.40;;
72960;SDS011;61141;46.204;19.774;2023-07-20T02:49:39;3.50;;;1.45;;
72960;SDS011;61141;46.204;19.774;2023-07-20T02:52:42;3.65;;;1.60;;
72960;SDS011;61141;46.204;19.774;2023-07-20T02:55:44;3.20;;;1.13;;
72960;SDS011;61141;46.204;19.774;2023-07-20T02:58:48;3.83;;;1.48;;
72960;SDS011;61141;46.204;19.774;2023-07-20T03:01:51;3.67;;;1.58;;
72960;SDS011;61141;46.204;19.774;2023-07-20T03:04:54;4.12;;;1.70;;
72960;SDS011;61141;46.204;19.774;2023-07-20T03:07:56;4.22;;;1.65;;
72960;SDS011;61141;46.204;19.774;2023-07-20T03:10:59;3.63;;;1.50;;
72960;SDS011;61141;46.204;19.774;2023-07-20T03:14:03;3.97;;;1.77;;
72960;SDS011;61141;46.204;19.774;2023-07-20T03:17:10;3.85;;;1.77;;
72960;SDS011;61141;46.204;19.774;2023-07-20T03:20:13;4.07;;;1.87;;
72960;SDS011;61141;46.204;19.774;2023-07-20T03:23:16;3.90;;;1.77;;
72960;SDS011;61141;46.204;19.774;2023-07-20T03:26:19;3.50;;;1.40;;
72960;SDS011;61141;46.204;19.774;2023-07-20T03:29:24;4.03;;;1.83;;
72960;SDS011;61141;46.204;19.774;2023-07-20T03:32:29;3.72;;;1.67;;
72960;SDS011;61141;46.204;19.774;2023-07-20T03:35:32;3.40;;;1.30;;
72960;SDS011;61141;46.204;19.774;2023-07-20T03:38:35;4.90;;;2.50;;
72960;SDS011;61141;46.204;19.774;2023-07-20T03:41:38;3.57;;;1.57;;
72960;SDS011;61141;46.204;19.774;2023-07-20T03:44:41;3.17;;;0.95;;
72960;SDS011;61141;46.204;19.774;2023-07-20T03:47:44;3.65;;;1.52;;
72960;SDS011;61141;46.204;19.774;2023-07-20T03:50:49;4.37;;;2.10;;
72960;SDS011;61141;46.204;19.774;2023-07-20T03:53:53;7.55;;;2.37;;
72960;SDS011;61141;46.204;19.774;2023-07-20T03:56:55;2.83;;;0.93;;
72960;SDS011;61141;46.204;19.774;2023-07-20T03:59:59;3.67;;;1.55;;
72960;SDS011;61141;46.204;19.774;2023-07-20T04:03:14;3.40;;;1.30;;
72960;SDS011;61141;46.204;19.774;2023-07-20T04:06:17;3.47;;;1.45;;
72960;SDS011;61141;46.204;19.774;2023-07-20T04:09:20;3.97;;;1.60;;
72960;SDS011;61141;46.204;19.774;2023-07-20T04:12:24;4.50;;;2.37;;
72960;SDS011;61141;46.204;19.774;2023-07-20T04:15:27;3.08;;;1.12;;
72960;SDS011;61141;46.204;19.774;2023-07-20T04:18:30;3.75;;;1.80;;
72960;SDS011;61141;46.204;19.774;2023-07-20T04:21:33;4.55;;;2.15;;
72960;SDS011;61141;46.204;19.774;2023-07-20T04:24:36;4.22;;;2.08;;
72960;SDS011;61141;46.204;19.774;2023-07-20T04:27:38;3.77;;;1.57;;
72960;SDS011;61141;46.204;19.774;2023-07-20T04:30:42;3.67;;;1.25;;
72960;SDS011;61141;46.204;19.774;2023-07-20T04:33:45;4.32;;;2.35;;
72960;SDS011;61141;46.204;19.774;2023-07-20T04:36:52;4.40;;;1.33;;
72960;SDS011;61141;46.204;19.774;2023-07-20T04:39:56;2.67;;;0.80;;
72960;SDS011;61141;46.204;19.774;2023-07-20T04:43:00;3.37;;;0.90;;
72960;SDS011;61141;46.204;19.774;2023-07-20T04:46:03;3.70;;;1.70;;
72960;SDS011;61141;46.204;19.774;2023-07-20T04:49:06;2.75;;;0.75;;
72960;SDS011;61141;46.204;19.774;2023-07-20T04:52:10;3.25;;;1.25;;
72960;SDS011;61141;46.204;19.774;2023-07-20T04:55:14;4.30;;;2.12;;
72960;SDS011;61141;46.204;19.774;2023-07-20T04:58:17;4.37;;;2.33;;
72960;SDS011;61141;46.204;19.774;2023-07-20T05:01:24;3.47;;;1.42;;
72960;SDS011;61141;46.204;19.774;2023-07-20T05:04:27;3.55;;;1.60;;
72960;SDS011;61141;46.204;19.774;2023-07-20T05:07:40;5.18;;;2.20;;
72960;SDS011;61141;46.204;19.774;2023-07-20T05:10:43;4.55;;;2.25;;
72960;SDS011;61141;46.204;19.774;2023-07-20T05:13:52;3.60;;;1.60;;
72960;SDS011;61141;46.204;19.774;2023-07-20T05:16:55;3.50;;;1.50;;
72960;SDS011;61141;46.204;19.774;2023-07-20T05:19:58;3.97;;;1.70;;
72960;SDS011;61141;46.204;19.774;2023-07-20T05:23:01;4.20;;;2.10;;
72960;SDS011;61141;46.204;19.774;2023-07-20T05:26:07;3.97;;;1.95;;
72960;SDS011;61141;46.204;19.774;2023-07-20T05:29:10;4.17;;;1.90;;
72960;SDS011;61141;46.204;19.774;2023-07-20T05:32:14;3.58;;;1.45;;
72960;SDS011;61141;46.204;19.774;2023-07-20T05:35:17;3.40;;;1.45;;
72960;SDS011;61141;46.204;19.774;2023-07-20T05:38:21;3.25;;;1.27;;
72960;SDS011;61141;46.204;19.774;2023-07-20T05:41:24;3.90;;;1.67;;
72960;SDS011;61141;46.204;19.774;2023-07-20T05:44:27;4.60;;;2.27;;
72960;SDS011;61141;46.204;19.774;2023-07-20T05:47:30;3.47;;;1.15;;
72960;SDS011;61141;46.204;19.774;2023-07-20T05:50:34;3.50;;;1.48;;
72960;SDS011;61141;46.204;19.774;2023-07-20T05:53:37;3.83;;;1.67;;
72960;SDS011;61141;46.204;19.774;2023-07-20T05:56:41;4.22;;;2.10;;
72960;SDS011;61141;46.204;19.774;2023-07-20T05:59:44;3.60;;;1.43;;
72960;SDS011;61141;46.204;19.774;2023-07-20T06:02:47;3.65;;;1.62;;
72960;SDS011;61141;46.204;19.774;2023-07-20T06:05:58;8.60;;;2.80;;
72960;SDS011;61141;46.204;19.774;2023-07-20T06:09:03;3.60;;;1.60;;
72960;SDS011;61141;46.204;19.774;2023-07-20T06:12:07;3.75;;;1.48;;
72960;SDS011;61141;46.204;19.774;2023-07-20T06:15:31;4.13;;;1.93;;
72960;SDS011;61141;46.204;19.774;2023-07-20T06:18:37;5.65;;;3.03;;
72960;SDS011;61141;46.204;19.774;2023-07-20T06:21:40;4.22;;;2.37;;
72960;SDS011;61141;46.204;19.774;2023-07-20T06:24:43;4.18;;;2.05;;
72960;SDS011;61141;46.204;19.774;2023-07-20T06:27:49;4.10;;;2.15;;
72960;SDS011;61141;46.204;19.774;2023-07-20T06:31:00;4.07;;;1.80;;
72960;SDS011;61141;46.204;19.774;2023-07-20T06:34:06;4.03;;;2.03;;
72960;SDS011;61141;46.204;19.774;2023-07-20T06:37:09;4.45;;;2.20;;
72960;SDS011;61141;46.204;19.774;2023-07-20T06:40:13;4.72;;;2.45;;
72960;SDS011;61141;46.204;19.774;2023-07-20T06:43:19;4.25;;;1.80;;
72960;SDS011;61141;46.204;19.774;2023-07-20T06:46:25;3.63;;;1.63;;
72960;SDS011;61141;46.204;19.774;2023-07-20T06:49:29;4.55;;;2.78;;
72960;SDS011;61141;46.204;19.774;2023-07-20T06:52:33;5.12;;;3.03;;
72960;SDS011;61141;46.204;19.774;2023-07-20T06:55:36;4.15;;;1.90;;
72960;SDS011;61141;46.204;19.774;2023-07-20T06:58:42;4.90;;;2.60;;
72960;SDS011;61141;46.204;19.774;2023-07-20T07:01:45;3.17;;;1.20;;
72960;SDS011;61141;46.204;19.774;2023-07-20T07:04:48;3.83;;;1.67;;
72960;SDS011;61141;46.204;19.774;2023-07-20T07:08:03;4.05;;;2.05;;
72960;SDS011;61141;46.204;19.774;2023-07-20T07:11:10;4.00;;;1.73;;
72960;SDS011;61141;46.204;19.774;2023-07-20T07:14:15;5.80;;;3.17;;
72960;SDS011;61141;46.204;19.774;2023-07-20T07:17:18;3.90;;;1.97;;
72960;SDS011;61141;46.204;19.774;2023-07-20T07:20:22;4.00;;;1.80;;
72960;SDS011;61141;46.204;19.774;2023-07-20T07:23:26;4.30;;;1.90;;
72960;SDS011;61141;46.204;19.774;2023-07-20T07:26:29;6.53;;;1.85;;
72960;SDS011;61141;46.204;19.774;2023-07-20T07:29:32;3.78;;;1.73;;
72960;SDS011;61141;46.204;19.774;2023-07-20T07:32:35;4.27;;;2.23;;
72960;SDS011;61141;46.204;19.774;2023-07-20T07:35:38;4.37;;;2.03;;
72960;SDS011;61141;46.204;19.774;2023-07-20T07:38:41;4.22;;;2.10;;
72960;SDS011;61141;46.204;19.774;2023-07-20T07:41:50;3.85;;;1.77;;
72960;SDS011;61141;46.204;19.774;2023-07-20T07:44:54;4.50;;;2.30;;
72960;SDS011;61141;46.204;19.774;2023-07-20T07:47:56;4.03;;;1.90;;
72960;SDS011;61141;46.204;19.774;2023-07-20T07:50:59;4.18;;;2.10;;
72960;SDS011;61141;46.204;19.774;2023-07-20T07:54:06;3.70;;;1.60;;
72960;SDS011;61141;46.204;19.774;2023-07-20T07:57:09;4.05;;;1.98;;
72960;SDS011;61141;46.204;19.774;2023-07-20T08:00:12;5.57;;;2.87;;
72960;SDS011;61141;46.204;19.774;2023-07-20T08:03:16;4.10;;;1.83;;
72960;SDS011;61141;46.204;19.774;2023-07-20T08:06:21;3.72;;;1.73;;
72960;SDS011;61141;46.204;19.774;2023-07-20T08:09:27;5.10;;;2.83;;
72960;SDS011;61141;46.204;19.774;2023-07-20T08:12:31;5.03;;;2.75;;
72960;SDS011;61141;46.204;19.774;2023-07-20T08:15:34;5.95;;;3.05;;
72960;SDS011;61141;46.204;19.774;2023-07-20T08:18:37;4.00;;;1.90;;
72960;SDS011;61141;46.204;19.774;2023-07-20T08:21:41;4.25;;;2.10;;
72960;SDS011;61141;46.204;19.774;2023-07-20T08:24:44;4.47;;;2.53;;
72960;SDS011;61141;46.204;19.774;2023-07-20T08:27:47;4.18;;;1.98;;
72960;SDS011;61141;46.204;19.774;2023-07-20T08:30:51;4.05;;;1.98;;
72960;SDS011;61141;46.204;19.774;2023-07-20T08:33:54;4.77;;;2.60;;
72960;SDS011;61141;46.204;19.774;2023-07-20T08:36:59;4.18;;;2.03;;
72960;SDS011;61141;46.204;19.774;2023-07-20T08:40:03;4.40;;;2.28;;
72960;SDS011;61141;46.204;19.774;2023-07-20T08:43:09;4.82;;;1.62;;
72960;SDS011;61141;46.204;19.774;2023-07-20T08:46:16;3.85;;;1.67;;
72960;SDS011;61141;46.204;19.774;2023-07-20T08:49:20;3.83;;;1.70;;
72960;SDS011;61141;46.204;19.774;2023-07-20T08:52:23;4.93;;;2.50;;
72960;SDS011;61141;46.204;19.774;2023-07-20T08:55:27;4.32;;;2.17;;
72960;SDS011;61141;46.204;19.774;2023-07-20T08:58:30;4.85;;;2.35;;
72960;SDS011;61141;46.204;19.774;2023-07-20T09:01:33;4.80;;;2.62;;
72960;SDS011;61141;46.204;19.774;2023-07-20T09:04:38;4.60;;;2.63;;
72960;SDS011;61141;46.204;19.774;2023-07-20T09:07:45;5.30;;;2.80;;
72960;SDS011;61141;46.204;19.774;2023-07-20T09:10:49;6.12;;;3.35;;
72960;SDS011;61141;46.204;19.774;2023-07-20T09:14:06;4.35;;;2.37;;
72960;SDS011;61141;46.204;19.774;2023-07-20T09:17:13;4.75;;;2.55;;
72960;SDS011;61141;46.204;19.774;2023-07-20T09:20:19;4.47;;;1.90;;
72960;SDS011;61141;46.204;19.774;2023-07-20T09:23:49;4.43;;;2.33;;
72960;SDS011;61141;46.204;19.774;2023-07-20T09:26:48;4.35;;;2.30;;
72960;SDS011;61141;46.204;19.774;2023-07-20T09:29:53;4.53;;;2.42;;
72960;SDS011;61141;46.204;19.774;2023-07-20T09:32:59;7.00;;;3.75;;
72960;SDS011;61141;46.204;19.774;2023-07-20T09:36:03;4.80;;;2.83;;
72960;SDS011;61141;46.204;19.774;2023-07-20T09:39:27;5.47;;;3.12;;
72960;SDS011;61141;46.204;19.774;2023-07-20T09:42:31;4.97;;;2.35;;
72960;SDS011;61141;46.204;19.774;2023-07-20T09:45:40;4.82;;;2.25;;
72960;SDS011;61141;46.204;19.774;2023-07-20T09:48:52;4.43;;;2.03;;
72960;SDS011;61141;46.204;19.774;2023-07-20T09:51:59;5.00;;;2.30;;
72960;SDS011;61141;46.204;19.774;2023-07-20T09:55:05;4.47;;;2.65;;
72960;SDS011;61141;46.204;19.774;2023-07-20T09:58:09;4.55;;;2.72;;
72960;SDS011;61141;46.204;19.774;2023-07-20T10:01:12;4.75;;;2.78;;
72960;SDS011;61141;46.204;19.774;2023-07-20T10:04:20;4.70;;;2.70;;
72960;SDS011;61141;46.204;19.774;2023-07-20T10:07:33;4.47;;;2.30;;
72960;SDS011;61141;46.204;19.774;2023-07-20T10:10:41;4.85;;;2.75;;
72960;SDS011;61141;46.204;19.774;2023-07-20T10:13:51;5.75;;;3.42;;
72960;SDS011;61141;46.204;19.774;2023-07-20T10:16:58;5.30;;;3.12;;
72960;SDS011;61141;46.204;19.774;2023-07-20T10:20:03;5.65;;;3.37;;
72960;SDS011;61141;46.204;19.774;2023-07-20T10:23:07;4.87;;;2.87;;
72960;SDS011;61141;46.204;19.774;2023-07-20T10:26:11;4.43;;;2.40;;
72960;SDS011;61141;46.204;19.774;2023-07-20T10:29:16;4.65;;;2.60;;
72960;SDS011;61141;46.204;19.774;2023-07-20T10:32:19;4.93;;;3.00;;
72960;SDS011;61141;46.204;19.774;2023-07-20T10:39:08;4.60;;;2.70;;
72960;SDS011;61141;46.204;19.774;2023-07-20T10:42:28;5.37;;;3.55;;
72960;SDS011;61141;46.204;19.774;2023-07-20T10:49:01;4.80;;;2.95;;
72960;SDS011;61141;46.204;19.774;2023-07-20T10:52:08;5.12;;;3.17;;
72960;SDS011;61141;46.204;19.774;2023-07-20T10:55:16;5.83;;;4.07;;
72960;SDS011;61141;46.204;19.774;2023-07-20T10:58:19;4.20;;;2.15;;
72960;SDS011;61141;46.204;19.774;2023-07-20T11:01:29;5.03;;;2.30;;
72960;SDS011;61141;46.204;19.774;2023-07-20T11:04:42;5.03;;;3.08;;
72960;SDS011;61141;46.204;19.774;2023-07-20T11:07:46;6.50;;;3.22;;
72960;SDS011;61141;46.204;19.774;2023-07-20T11:10:49;7.60;;;2.97;;
72960;SDS011;61141;46.204;19.774;2023-07-20T11:14:24;5.00;;;2.37;;
72960;SDS011;61141;46.204;19.774;2023-07-20T11:17:32;4.68;;;2.90;;
72960;SDS011;61141;46.204;19.774;2023-07-20T11:20:36;6.22;;;3.40;;
72960;SDS011;61141;46.204;19.774;2023-07-20T11:23:39;5.43;;;3.28;;
72960;SDS011;61141;46.204;19.774;2023-07-20T11:26:47;4.77;;;2.47;;
72960;SDS011;61141;46.204;19.774;2023-07-20T11:29:54;4.70;;;2.70;;
72960;SDS011;61141;46.204;19.774;2023-07-20T11:32:58;5.12;;;3.00;;
72960;SDS011;61141;46.204;19.774;2023-07-20T11:36:01;4.95;;;3.08;;
72960;SDS011;61141;46.204;19.774;2023-07-20T11:39:25;5.93;;;3.80;;
72960;SDS011;61141;46.204;19.774;2023-07-20T11:42:28;4.80;;;2.87;;
72960;SDS011;61141;46.204;19.774;2023-07-20T11:45:38;4.45;;;2.62;;
72960;SDS011;61141;46.204;19.774;2023-07-20T11:48:41;5.40;;;3.70;;
72960;SDS011;61141;46.204;19.774;2023-07-20T11:51:44;5.90;;;3.67;;
72960;SDS011;61141;46.204;19.774;2023-07-20T11:54:48;5.12;;;3.15;;
72960;SDS011;61141;46.204;19.774;2023-07-20T11:58:02;4.80;;;2.83;;
72960;SDS011;61141;46.204;19.774;2023-07-20T12:01:05;4.95;;;2.87;;
72960;SDS011;61141;46.204;19.774;2023-07-20T12:04:08;5.00;;;3.10;;
72960;SDS011;61141;46.204;19.774;2023-07-20T12:07:14;4.97;;;3.08;;
72960;SDS011;61141;46.204;19.774;2023-07-20T12:10:22;5.55;;;3.90;;
72960;SDS011;61141;46.204;19.774;2023-07-20T12:13:36;6.17;;;4.20;;
72960;SDS011;61141;46.204;19.774;2023-07-20T12:16:40;5.00;;;2.83;;
72960;SDS011;61141;46.204;19.774;2023-07-20T12:19:43;5.30;;;3.42;;
72960;SDS011;61141;46.204;19.774;2023-07-20T12:22:46;5.20;;;3.15;;
72960;SDS011;61141;46.204;19.774;2023-07-20T12:25:48;4.87;;;2.72;;
72960;SDS011;61141;46.204;19.774;2023-07-20T12:28:52;4.77;;;2.47;;
72960;SDS011;61141;46.204;19.774;2023-07-20T12:31:55;4.55;;;2.65;;
72960;SDS011;61141;46.204;19.774;2023-07-20T12:34:58;5.37;;;3.55;;
72960;SDS011;61141;46.204;19.774;2023-07-20T12:38:03;4.32;;;2.10;;
72960;SDS011;61141;46.204;19.774;2023-07-20T12:41:06;5.82;;;3.12;;
72960;SDS011;61141;46.204;19.774;2023-07-20T12:44:15;3.93;;;2.00;;
72960;SDS011;61141;46.204;19.774;2023-07-20T12:47:23;4.60;;;2.33;;
72960;SDS011;61141;46.204;19.774;2023-07-20T12:50:26;4.18;;;2.05;;
72960;SDS011;61141;46.204;19.774;2023-07-20T12:53:34;5.12;;;3.17;;
72960;SDS011;61141;46.204;19.774;2023-07-20T12:56:37;4.87;;;2.78;;
72960;SDS011;61141;46.204;19.774;2023-07-20T12:59:43;7.43;;;3.47;;
72960;SDS011;61141;46.204;19.774;2023-07-20T13:02:45;5.10;;;3.30;;
72960;SDS011;61141;46.204;19.774;2023-07-20T13:05:49;5.18;;;3.20;;
72960;SDS011;61141;46.204;19.774;2023-07-20T13:08:55;6.62;;;2.97;;
72960;SDS011;61141;46.204;19.774;2023-07-20T13:12:01;4.87;;;3.12;;
72960;SDS011;61141;46.204;19.774;2023-07-20T13:15:04;5.10;;;3.07;;
72960;SDS011;61141;46.204;19.774;2023-07-20T13:18:08;5.07;;;3.12;;
72960;SDS011;61141;46.204;19.774;2023-07-20T13:21:11;5.47;;;3.75;;
72960;SDS011;61141;46.204;19.774;2023-07-20T13:24:15;4.85;;;2.67;;
72960;SDS011;61141;46.204;19.774;2023-07-20T13:27:18;4.60;;;2.55;;
72960;SDS011;61141;46.204;19.774;2023-07-20T13:30:21;4.23;;;2.17;;
72960;SDS011;61141;46.204;19.774;2023-07-20T13:33:24;5.00;;;2.70;;
72960;SDS011;61141;46.204;19.774;2023-07-20T13:36:30;4.57;;;2.60;;
72960;SDS011;61141;46.204;19.774;2023-07-20T13:39:33;6.80;;;3.03;;
72960;SDS011;61141;46.204;19.774;2023-07-20T13:42:36;4.55;;;2.50;;
72960;SDS011;61141;46.204;19.774;2023-07-20T13:45:40;4.50;;;2.37;;
72960;SDS011;61141;46.204;19.774;2023-07-20T13:48:43;4.93;;;3.08;;
72960;SDS011;61141;46.204;19.774;2023-07-20T13:51:46;4.75;;;2.78;;
72960;SDS011;61141;46.204;19.774;2023-07-20T13:55:09;4.80;;;2.92;;
72960;SDS011;61141;46.204;19.774;2023-07-20T13:58:12;5.82;;;3.03;;
72960;SDS011;61141;46.204;19.774;2023-07-20T14:13:08;4.70;;;2.55;;
72960;SDS011;61141;46.204;19.774;2023-07-20T14:16:30;5.15;;;3.28;;
72960;SDS011;61141;46.204;19.774;2023-07-20T14:19:36;4.68;;;2.58;;
72960;SDS011;61141;46.204;19.774;2023-07-20T14:22:40;4.57;;;2.70;;
72960;SDS011;61141;46.204;19.774;2023-07-20T14:25:45;4.78;;;2.85;;
72960;SDS011;61141;46.204;19.774;2023-07-20T14:28:50;5.25;;;2.87;;
72960;SDS011;61141;46.204;19.774;2023-07-20T14:31:53;4.72;;;2.55;;
72960;SDS011;61141;46.204;19.774;2023-07-20T14:34:56;4.50;;;2.42;;
72960;SDS011;61141;46.204;19.774;2023-07-20T14:37:59;4.57;;;2.53;;
72960;SDS011;61141;46.204;19.774;2023-07-20T14:41:02;5.12;;;3.12;;
72960;SDS011;61141;46.204;19.774;2023-07-20T14:44:05;4.62;;;2.70;;
72960;SDS011;61141;46.204;19.774;2023-07-20T14:47:11;5.40;;;3.40;;
72960;SDS011;61141;46.204;19.774;2023-07-20T14:50:16;4.95;;;2.97;;
72960;SDS011;61141;46.204;19.774;2023-07-20T14:53:19;5.40;;;3.57;;
72960;SDS011;61141;46.204;19.774;2023-07-20T14:56:22;5.07;;;3.05;;
72960;SDS011;61141;46.204;19.774;2023-07-20T14:59:27;5.20;;;3.12;;
72960;SDS011;61141;46.204;19.774;2023-07-20T15:02:31;5.07;;;2.95;;
72960;SDS011;61141;46.204;19.774;2023-07-20T15:05:38;4.97;;;2.83;;
72960;SDS011;61141;46.204;19.774;2023-07-20T15:08:44;4.57;;;2.50;;
72960;SDS011;61141;46.204;19.774;2023-07-20T15:11:47;4.55;;;2.40;;
72960;SDS011;61141;46.204;19.774;2023-07-20T15:15:06;4.32;;;2.15;;
72960;SDS011;61141;46.204;19.774;2023-07-20T15:18:10;5.32;;;2.83;;
72960;SDS011;61141;46.204;19.774;2023-07-20T15:21:13;5.82;;;4.05;;
72960;SDS011;61141;46.204;19.774;2023-07-20T15:24:16;5.10;;;3.13;;
72960;SDS011;61141;46.204;19.774;2023-07-20T15:27:19;5.22;;;3.12;;
72960;SDS011;61141;46.204;19.774;2023-07-20T15:30:22;4.80;;;2.87;;
72960;SDS011;61141;46.204;19.774;2023-07-20T15:33:28;5.20;;;3.55;;
72960;SDS011;61141;46.204;19.774;2023-07-20T15:36:31;5.10;;;3.03;;
72960;SDS011;61141;46.204;19.774;2023-07-20T15:39:34;4.70;;;2.73;;
72960;SDS011;61141;46.204;19.774;2023-07-20T15:42:37;4.75;;;2.50;;
72960;SDS011;61141;46.204;19.774;2023-07-20T15:45:40;4.70;;;2.50;;
72960;SDS011;61141;46.204;19.774;2023-07-20T15:48:43;5.35;;;3.37;;
72960;SDS011;61141;46.204;19.774;2023-07-20T15:51:48;4.55;;;2.30;;
72960;SDS011;61141;46.204;19.774;2023-07-20T15:54:51;4.33;;;2.27;;
72960;SDS011;61141;46.204;19.774;2023-07-20T15:57:58;5.65;;;3.00;;
72960;SDS011;61141;46.204;19.774;2023-07-20T16:01:01;4.80;;;2.58;;
72960;SDS011;61141;46.204;19.774;2023-07-20T16:04:05;4.60;;;2.50;;
72960;SDS011;61141;46.204;19.774;2023-07-20T16:07:08;5.10;;;2.95;;
72960;SDS011;61141;46.204;19.774;2023-07-20T16:10:11;4.53;;;2.47;;
72960;SDS011;61141;46.204;19.774;2023-07-20T16:13:14;4.78;;;2.87;;
72960;SDS011;61141;46.204;19.774;2023-07-20T16:16:20;4.40;;;2.28;;
72960;SDS011;61141;46.204;19.774;2023-07-20T16:19:23;3.85;;;1.85;;
72960;SDS011;61141;46.204;19.774;2023-07-20T16:22:27;4.75;;;2.83;;
72960;SDS011;61141;46.204;19.774;2023-07-20T16:25:33;5.50;;;2.97;;
72960;SDS011;61141;46.204;19.774;2023-07-20T16:28:37;4.68;;;2.75;;
72960;SDS011;61141;46.204;19.774;2023-07-20T16:31:40;5.15;;;3.00;;
72960;SDS011;61141;46.204;19.774;2023-07-20T16:35:03;4.30;;;2.15;;
72960;SDS011;61141;46.204;19.774;2023-07-20T16:38:10;4.20;;;2.05;;
72960;SDS011;61141;46.204;19.774;2023-07-20T16:41:15;4.60;;;2.50;;
72960;SDS011;61141;46.204;19.774;2023-07-20T16:44:38;4.82;;;2.72;;
72960;SDS011;61141;46.204;19.774;2023-07-20T16:47:42;4.53;;;2.30;;
72960;SDS011;61141;46.204;19.774;2023-07-20T16:50:45;4.68;;;2.60;;
72960;SDS011;61141;46.204;19.774;2023-07-20T16:53:48;4.62;;;2.58;;
72960;SDS011;61141;46.204;19.774;2023-07-20T16:56:51;4.27;;;2.20;;
72960;SDS011;61141;46.204;19.774;2023-07-20T16:59:54;4.65;;;2.65;;
72960;SDS011;61141;46.204;19.774;2023-07-20T17:02:57;4.68;;;2.17;;
72960;SDS011;61141;46.204;19.774;2023-07-20T17:06:02;4.72;;;2.60;;
72960;SDS011;61141;46.204;19.774;2023-07-20T17:09:07;5.07;;;3.25;;
72960;SDS011;61141;46.204;19.774;2023-07-20T17:12:10;3.90;;;1.70;;
72960;SDS011;61141;46.204;19.774;2023-07-20T17:15:13;4.30;;;2.20;;
72960;SDS011;61141;46.204;19.774;2023-07-20T17:18:17;4.93;;;2.78;;
72960;SDS011;61141;46.204;19.774;2023-07-20T17:21:20;5.85;;;2.70;;
72960;SDS011;61141;46.204;19.774;2023-07-20T17:24:24;4.72;;;2.72;;
72960;SDS011;61141;46.204;19.774;2023-07-20T17:27:33;4.50;;;2.40;;
72960;SDS011;61141;46.204;19.774;2023-07-20T17:31:00;4.35;;;1.95;;
72960;SDS011;61141;46.204;19.774;2023-07-20T17:34:03;4.12;;;2.10;;
72960;SDS011;61141;46.204;19.774;2023-07-20T17:37:07;5.10;;;2.40;;
72960;SDS011;61141;46.204;19.774;2023-07-20T17:40:13;4.47;;;2.33;;
72960;SDS011;61141;46.204;19.774;2023-07-20T17:43:19;4.73;;;2.63;;
72960;SDS011;61141;46.204;19.774;2023-07-20T17:46:22;4.57;;;2.55;;
72960;SDS011;61141;46.204;19.774;2023-07-20T17:49:29;4.55;;;2.42;;
72960;SDS011;61141;46.204;19.774;2023-07-20T17:52:32;7.32;;;2.70;;
72960;SDS011;61141;46.204;19.774;2023-07-20T17:55:36;4.72;;;2.75;;
72960;SDS011;61141;46.204;19.774;2023-07-20T17:58:40;4.10;;;2.13;;
72960;SDS011;61141;46.204;19.774;2023-07-20T18:01:43;6.75;;;2.83;;
72960;SDS011;61141;46.204;19.774;2023-07-20T18:04:47;4.65;;;2.28;;
72960;SDS011;61141;46.204;19.774;2023-07-20T18:07:50;5.22;;;3.03;;
72960;SDS011;61141;46.204;19.774;2023-07-20T18:10:53;4.80;;;2.75;;
72960;SDS011;61141;46.204;19.774;2023-07-20T18:13:55;4.90;;;2.37;;
72960;SDS011;61141;46.204;19.774;2023-07-20T18:17:00;4.50;;;2.15;;
72960;SDS011;61141;46.204;19.774;2023-07-20T18:20:03;4.85;;;2.70;;
72960;SDS011;61141;46.204;19.774;2023-07-20T18:23:09;4.03;;;1.90;;
72960;SDS011;61141;46.204;19.774;2023-07-20T18:26:12;4.60;;;2.53;;
72960;SDS011;61141;46.204;19.774;2023-07-20T18:29:15;4.57;;;2.47;;
72960;SDS011;61141;46.204;19.774;2023-07-20T18:32:18;4.30;;;2.05;;
72960;SDS011;61141;46.204;19.774;2023-07-20T18:35:21;4.82;;;2.62;;
72960;SDS011;61141;46.204;19.774;2023-07-20T18:38:23;5.37;;;3.12;;
72960;SDS011;61141;46.204;19.774;2023-07-20T18:41:26;4.28;;;2.25;;